Time;durP1;ratioP1;P1;durP2;ratioP2;P2;SDS_P1;SDS_P2;PMS_P1;PMS_P2;Temp;Humidity;BMP_temperature;BMP_pressure;BME280_temperature;BME280_humidity;BME280_pressure;Samples;Min_cycle;Max_cycle;Signal;HPM_P1;HPM_P2
2021/03/28 00:01:26;;;;;;;15.8;11.5;;;;;;;4.75;100;99633.17;;;;
2021/03/28 00:11:24;;;;;;;17;12.3;;;;;;;4.67;100;99627.41;;;;
2021/03/28 00:21:22;;;;;;;13.2;8.6;;;;;;;4.53;100;99635.75;;;;
2021/03/28 00:31:20;;;;;;;13.2;9.7;;;;;;;4.51;100;99643.18;;;;
2021/03/28 00:41:19;;;;;;;17.9;12;;;;;;;4.49;100;99647.97;;;;
2021/03/28 00:51:16;;;;;;;15.6;12.8;;;;;;;4.61;100;99657.77;;;;
2021/03/28 01:01:24;;;;;;;18;12.8;;;;;;;4.74;100;99660.92;;;;
2021/03/28 01:11:19;;;;;;;13.8;10.3;;;;;;;4.85;100;99670.72;;;;
2021/03/28 01:21:19;;;;;;;17.7;12.7;;;;;;;4.88;100;99678.23;;;;
2021/03/28 01:31:23;;;;;;;22.1;13.8;;;;;;;4.98;100;99683.73;;;;
2021/03/28 01:41:06;;;;;;;15.7;8.7;;;;;;;4.76;100;99680.16;;;;
2021/03/28 01:51:04;;;;;;;11.7;7.2;;;;;;;4.64;100;99666.09;;;;
2021/03/28 02:01:02;;;;;;;15.6;7.4;;;;;;;4.74;100;99673.45;;;;
2021/03/28 02:20:58;;;;;;;8.6;6.1;;;;;;;4.68;100;99682.45;;;;
2021/03/28 02:30:56;;;;;;;19.2;11.5;;;;;;;4.74;100;99700.16;;;;
2021/03/28 02:40:54;;;;;;;14.7;12.3;;;;;;;4.48;100;99706.91;;;;
2021/03/28 02:50:52;;;;;;;17.1;12.1;;;;;;;4.53;100;99723.03;;;;
2021/03/28 03:00:50;;;;;;;10;7.9;;;;;;;4.38;100;99736.09;;;;
2021/03/28 03:11:04;;;;;;;10.7;8.7;;;;;;;3.97;100;99745.99;;;;
2021/03/28 03:20:52;;;;;;;8.7;5.9;;;;;;;3.95;100;99769.43;;;;
2021/03/28 03:30:43;;;;;;;10.6;8.5;;;;;;;3.9;100;99782.64;;;;
2021/03/28 03:40:41;;;;;;;8.9;7.2;;;;;;;3.73;100;99778.27;;;;
2021/03/28 03:50:56;;;;;;;10.4;8;;;;;;;3.66;100;99802.38;;;;
2021/03/28 04:00:37;;;;;;;9.4;6.1;;;;;;;3.38;100;99805.73;;;;
2021/03/28 04:10:41;;;;;;;12.9;5.5;;;;;;;3.29;100;99817.79;;;;
2021/03/28 04:20:37;;;;;;;9.6;5.5;;;;;;;2.99;100;99844.46;;;;
2021/03/28 04:30:56;;;;;;;6.6;4.6;;;;;;;2.73;100;99855.5;;;;
2021/03/28 04:41:00;;;;;;;12.2;6.1;;;;;;;2.55;100;99863.51;;;;
2021/03/28 04:51:09;;;;;;;6.6;4;;;;;;;2.42;100;99874.31;;;;
2021/03/28 05:00:23;;;;;;;14;5.2;;;;;;;2.4;100;99882.51;;;;
2021/03/28 05:10:21;;;;;;;10.2;6.5;;;;;;;2.76;100;99894.97;;;;
2021/03/28 05:20:24;;;;;;;10.5;5.8;;;;;;;2.96;100;99900.02;;;;
2021/03/28 05:30:16;;;;;;;12.7;7.8;;;;;;;3.25;100;99911.7;;;;
2021/03/28 05:40:14;;;;;;;10.3;6.1;;;;;;;3.29;100;99919.03;;;;
2021/03/28 05:50:12;;;;;;;19.6;7.1;;;;;;;3.44;100;99926.58;;;;
2021/03/28 06:00:10;;;;;;;11.1;6.7;;;;;;;3.81;100;99932.56;;;;
2021/03/28 06:10:08;;;;;;;10.4;7;;;;;;;3.99;100;99930.59;;;;
2021/03/28 06:20:06;;;;;;;10.6;7.5;;;;;;;3.94;100;99959.83;;;;
2021/03/28 06:30:12;;;;;;;22.6;7.4;;;;;;;4.04;100;99972.59;;;;
2021/03/28 06:40:02;;;;;;;9.8;7.2;;;;;;;4.34;100;99983.95;;;;
2021/03/28 06:50:00;;;;;;;13.7;8.5;;;;;;;4.82;97.56738;99989.03;;;;
2021/03/28 06:59:58;;;;;;;14.1;8.1;;;;;;;4.86;96.58984;99990.16;;;;
2021/03/28 07:09:56;;;;;;;11.5;6.5;;;;;;;4.83;95.90723;100001.3;;;;
2021/03/28 07:20:02;;;;;;;8.6;6.8;;;;;;;4.78;97.26758;99997.73;;;;
2021/03/28 07:30:05;;;;;;;12;7.9;;;;;;;5.29;91.77441;100012.9;;;;
2021/03/28 07:39:50;;;;;;;11.7;9.4;;;;;;;5.5;89.99707;100014.9;;;;
2021/03/28 07:49:59;;;;;;;10;7.2;;;;;;;5.46;87.23438;100029.8;;;;
2021/03/28 07:59:46;;;;;;;12;6.9;;;;;;;5.47;84.64453;100031.5;;;;
2021/03/28 08:09:53;;;;;;;10.7;6.6;;;;;;;5.51;83.56348;100054.8;;;;
2021/03/28 08:19:55;;;;;;;9.3;6.8;;;;;;;6.01;78.76563;100057.6;;;;
2021/03/28 08:29:54;;;;;;;7.3;5;;;;;;;6.63;77.24609;100052.2;;;;
2021/03/28 08:39:45;;;;;;;16.4;6.9;;;;;;;6.31;74.66309;100056.5;;;;
2021/03/28 08:49:37;;;;;;;14.2;9;;;;;;;5.8;80.62207;100071.7;;;;
2021/03/28 08:59:48;;;;;;;12;8.5;;;;;;;6.49;80.11523;100065.1;;;;
2021/03/28 09:09:43;;;;;;;10.2;7.3;;;;;;;6.57;75.59277;100064.7;;;;
2021/03/28 09:19:59;;;;;;;9.3;5.8;;;;;;;7.21;71.12012;100067.7;;;;
2021/03/28 09:29:50;;;;;;;8.3;6.2;;;;;;;7.93;72.65234;100070.1;;;;
2021/03/28 09:39:44;;;;;;;7.7;5.9;;;;;;;7.33;68.58008;100071.1;;;;
2021/03/28 09:49:26;;;;;;;11.3;6.1;;;;;;;6.92;70.0625;100060.9;;;;
2021/03/28 09:59:24;;;;;;;8.1;5.1;;;;;;;6.94;70.48242;100078.3;;;;
2021/03/28 10:09:22;;;;;;;9.3;5.9;;;;;;;7.69;68.2793;100077.7;;;;
2021/03/28 10:19:21;;;;;;;9.3;5.8;;;;;;;8.06;65.91797;100075.1;;;;
2021/03/28 10:29:19;;;;;;;12.9;6.1;;;;;;;8.17;65.08984;100060.7;;;;
2021/03/28 10:39:17;;;;;;;8.4;5;;;;;;;8.72;63.66016;100051.5;;;;
2021/03/28 10:49:15;;;;;;;8.1;5.2;;;;;;;8.99;62.96875;100047.6;;;;
2021/03/28 10:59:14;;;;;;;7;4;;;;;;;9.41;60.59766;100050.2;;;;
2021/03/28 11:09:13;;;;;;;7.8;4.2;;;;;;;9.77;59.09668;100055.7;;;;
2021/03/28 11:19:15;;;;;;;10.3;6;;;;;;;9.56;58.30957;100060.2;;;;
2021/03/28 11:29:11;;;;;;;14.7;6.1;;;;;;;9.99;57.89355;100051.7;;;;
2021/03/28 11:39:08;;;;;;;6.5;4.7;;;;;;;9.41;58.0752;100044.8;;;;
2021/03/28 11:49:07;;;;;;;6.9;5.1;;;;;;;9.66;57.88281;100040.6;;;;
2021/03/28 11:59:06;;;;;;;10.9;5.9;;;;;;;9.85;57.81641;100029.1;;;;
2021/03/28 12:09:04;;;;;;;8.3;5.2;;;;;;;10.34;57.07715;100017.8;;;;
2021/03/28 12:19:03;;;;;;;9.1;4.7;;;;;;;9.75;56.04688;100025.5;;;;
2021/03/28 12:29:02;;;;;;;9;4;;;;;;;10.58;56.89258;100005.4;;;;
2021/03/28 12:39:00;;;;;;;9.3;5.4;;;;;;;10.17;56.99707;100017.3;;;;
2021/03/28 12:48:59;;;;;;;8.4;4.5;;;;;;;10.38;56.82129;100014.3;;;;
2021/03/28 12:58:58;;;;;;;9.9;5.6;;;;;;;10.27;57.67969;100011.9;;;;
2021/03/28 13:08:58;;;;;;;5.8;4.3;;;;;;;10.34;55.72656;100013.2;;;;
2021/03/28 13:18:55;;;;;;;8.2;4.9;;;;;;;9.86;55.47266;100016.4;;;;
2021/03/28 13:28:54;;;;;;;8.4;4.8;;;;;;;9.81;55.63672;100011;;;;
2021/03/28 13:38:52;;;;;;;7.9;5;;;;;;;9.8;55.74902;100010.2;;;;
2021/03/28 13:48:51;;;;;;;6.7;5.2;;;;;;;10.13;53.83887;99994.59;;;;
2021/03/28 13:58:52;;;;;;;8.1;4.8;;;;;;;9.9;54.06055;99994.03;;;;
2021/03/28 14:08:48;;;;;;;5.7;4.1;;;;;;;9.85;54.81348;99995.92;;;;
2021/03/28 14:18:47;;;;;;;11.1;6.2;;;;;;;9.97;53.30957;99991.88;;;;
2021/03/28 14:28:46;;;;;;;10.3;4.9;;;;;;;9.73;53.04004;99995.36;;;;
2021/03/28 14:39:03;;;;;;;10.7;4.1;;;;;;;9.74;52.95215;99996.98;;;;
2021/03/28 14:48:47;;;;;;;8;5;;;;;;;9.8;52.59668;99988.64;;;;
2021/03/28 14:58:47;;;;;;;6.2;3.9;;;;;;;9.31;52.69531;99990.16;;;;
2021/03/28 15:08:40;;;;;;;6.9;3.8;;;;;;;9.15;53.94336;99985.8;;;;
2021/03/28 15:18:57;;;;;;;5.7;3.3;;;;;;;9.9;52.75586;99980.57;;;;
2021/03/28 15:28:37;;;;;;;5;3.6;;;;;;;10.91;49.43066;99982.33;;;;
2021/03/28 15:38:51;;;;;;;7.2;3.8;;;;;;;12.55;46.54199;99969.88;;;;
2021/03/28 15:48:48;;;;;;;8.8;4.6;;;;;;;12.89;36.81152;99971.66;;;;
2021/03/28 15:58:49;;;;;;;8;4.7;;;;;;;13.04;37.05469;99966.88;;;;
2021/03/28 16:08:47;;;;;;;6.4;4.4;;;;;;;12.89;36.29492;99964.34;;;;
2021/03/28 16:18:45;;;;;;;8.6;5.7;;;;;;;13.27;36.32617;99969.86;;;;
2021/03/28 16:28:38;;;;;;;10.4;6.1;;;;;;;12.97;37.51953;99966.42;;;;
2021/03/28 16:38:46;;;;;;;10.1;5;;;;;;;12.26;38.61523;99966.36;;;;
2021/03/28 16:48:48;;;;;;;19.7;8.8;;;;;;;10.39;42.18945;99971.95;;;;
2021/03/28 16:58:39;;;;;;;10.5;7.8;;;;;;;8.75;45.43359;99976.48;;;;
2021/03/28 17:08:27;;;;;;;14.5;7.9;;;;;;;7.96;47.62598;99979.16;;;;
2021/03/28 17:18:25;;;;;;;14.2;10.1;;;;;;;7.39;49.62988;99989.61;;;;
2021/03/28 17:28:24;;;;;;;19.9;13.2;;;;;;;6.73;52.4502;99990.72;;;;
2021/03/28 17:38:22;;;;;;;15.7;11;;;;;;;6;52.38379;99988.3;;;;
2021/03/28 17:48:20;;;;;;;22.5;10.2;;;;;;;5.26;56.34375;99989.35;;;;
2021/03/28 17:58:18;;;;;;;20;14;;;;;;;4.81;58.04297;99997.27;;;;
2021/03/28 18:08:16;;;;;;;20.2;13.5;;;;;;;4.34;60.31738;100005.3;;;;
2021/03/28 18:18:14;;;;;;;18.2;12.2;;;;;;;4.31;59.98828;100003.1;;;;
2021/03/28 18:28:12;;;;;;;20.1;13.7;;;;;;;4.13;60.21973;100019.2;;;;
2021/03/28 18:38:10;;;;;;;17.6;13.9;;;;;;;4.17;61.09766;100017.7;;;;
2021/03/28 18:48:08;;;;;;;23.6;16.2;;;;;;;4.27;60.53027;100025.2;;;;
2021/03/28 18:58:06;;;;;;;26;15.7;;;;;;;4.22;60.61328;100009.8;;;;
2021/03/28 19:08:04;;;;;;;24;14.4;;;;;;;4.16;60.99414;100023.3;;;;
2021/03/28 19:18:02;;;;;;;22.6;12.3;;;;;;;3.99;61.38477;100031.9;;;;
2021/03/28 19:28:00;;;;;;;21.3;13.2;;;;;;;4.18;58.94238;100035.4;;;;
2021/03/28 19:37:57;;;;;;;18;14.4;;;;;;;4.31;58.40039;100021.8;;;;
2021/03/28 19:47:55;;;;;;;15.2;11;;;;;;;4.42;57.49902;100021;;;;
2021/03/28 19:57:53;;;;;;;19.5;11.6;;;;;;;4.39;57.65137;100026;;;;
2021/03/28 20:07:51;;;;;;;14.8;10.7;;;;;;;4.29;58.50977;100033.7;;;;
2021/03/28 20:17:49;;;;;;;13.5;10.5;;;;;;;4.31;58.21094;100035.1;;;;
2021/03/28 20:27:47;;;;;;;16.2;9.6;;;;;;;4.2;59.0791;100046.6;;;;
2021/03/28 20:37:45;;;;;;;18.6;11.1;;;;;;;3.87;59.20117;100052.5;;;;
2021/03/28 20:47:43;;;;;;;18.5;14;;;;;;;3.1;61.90332;100053.3;;;;
2021/03/28 20:57:40;;;;;;;50.1;36.6;;;;;;;2.56;64.41504;100066.6;;;;
2021/03/28 21:07:38;;;;;;;43.7;35.6;;;;;;;2.09;65.99805;100062.6;;;;
2021/03/28 21:17:36;;;;;;;42.2;33.9;;;;;;;1.56;68.37598;100067.5;;;;
2021/03/28 21:27:37;;;;;;;41.2;29.9;;;;;;;1.14;70.17969;100064.4;;;;
2021/03/28 21:37:32;;;;;;;27.1;23.1;;;;;;;0.86;74.04297;100069.2;;;;
2021/03/28 21:47:31;;;;;;;36.1;25.9;;;;;;;0.58;73.8291;100074.8;;;;
2021/03/28 21:57:26;;;;;;;33.2;25.7;;;;;;;0.42;76.23828;100077.8;;;;
2021/03/28 22:07:25;;;;;;;39.4;26;;;;;;;0.2;76.70508;100063.2;;;;
2021/03/28 22:17:21;;;;;;;33.8;21;;;;;;;0.1;79.2627;100058.3;;;;
2021/03/28 22:27:18;;;;;;;31.5;19.2;;;;;;;0.01;79.56543;100067.4;;;;
2021/03/28 22:37:15;;;;;;;41.9;24.3;;;;;;;-0.1;80.16016;100071.5;;;;
2021/03/28 22:47:13;;;;;;;36.2;28.9;;;;;;;-0.19;81.35254;100053.4;;;;
2021/03/28 22:57:10;;;;;;;23;20.5;;;;;;;-0.27;81.45801;100062.3;;;;
2021/03/28 23:07:08;;;;;;;30.9;24.1;;;;;;;-0.41;81.79297;100063.3;;;;
2021/03/28 23:17:05;;;;;;;34.2;25.9;;;;;;;-0.48;82.9668;100073.1;;;;
2021/03/28 23:27:02;;;;;;;35.1;27.8;;;;;;;-0.55;83.0957;100065.1;;;;
2021/03/28 23:37:00;;;;;;;37.6;25.1;;;;;;;-0.57;83.91504;100051.3;;;;
2021/03/28 23:46:57;;;;;;;43.5;34.1;;;;;;;-0.56;85.00098;100052.1;;;;
2021/03/28 23:56:55;;;;;;;35.8;27.1;;;;;;;-0.64;84.22754;100033.7;;;;
